Sulphur Springs, Missouri
Current Conditions -  °F | °C
As of 2:53 AM on Wednesday 26 Nov 2014 (Local Time) from KCPS Reporting Station
Clear Clear  
Wind Chill: 23°   Ceiling: Unl
Heat Index: 28°   Visibility: 9mi
Dew Point: 25°   Wind: 5mph
Humidity: 88%   Direction: 150°SSE
Pressure: 30.11"   Gusts: NA
Location:  38.3874°N, 90.4319°W
Report Text: KCPS 260853Z AUTO 15004KT 9SM CLR M02/M04 A3011 RMK AO2 SLP200 T10221039 56017 TSNO
Loading
Personal Weather Stations






























Interactive Weather Map New forecast layout! Learn more

10-Day Weather Forecast

Advertisements
Track Severe Weather on mobile